createdAt,value
2017-09-20T00:03:09.995Z,9.07
2017-09-20T00:08:13.892Z,9.90
2017-09-20T00:13:16.820Z,10.30
2017-09-20T00:18:18.699Z,10.30
2017-09-20T00:23:21.604Z,11.30
2017-09-20T00:28:24.708Z,12.17
2017-09-20T00:33:26.584Z,11.70
2017-09-20T00:38:29.289Z,11.60
2017-09-20T00:43:31.920Z,11.53
2017-09-20T00:48:34.627Z,10.60
2017-09-20T00:53:38.556Z,10.63
2017-09-20T00:58:40.476Z,10.43
2017-09-20T01:03:42.354Z,10.40
2017-09-20T01:08:44.179Z,9.23
2017-09-20T01:13:46.081Z,10.07
2017-09-20T01:18:48.160Z,10.50
2017-09-20T01:23:50.067Z,10.73
2017-09-20T01:28:52.150Z,11.13
2017-09-20T01:33:55.790Z,10.23
2017-09-20T01:39:00.594Z,11.17
2017-09-20T01:44:02.424Z,12.50
2017-09-20T01:49:04.983Z,11.87
2017-09-20T01:54:08.879Z,11.20
2017-09-20T01:59:10.719Z,13.13
2017-09-20T02:04:13.483Z,13.53
2017-09-20T02:09:17.124Z,11.57
2017-09-20T02:14:20.719Z,14.60
2017-09-20T02:19:22.596Z,14.17
2017-09-20T02:24:25.498Z,11.70
2017-09-20T02:29:27.375Z,12.40
2017-09-20T02:34:30.543Z,13.00
2017-09-20T02:39:47.367Z,10.97
2017-09-20T02:45:06.762Z,11.20
2017-09-20T02:50:26.339Z,11.33
2017-09-20T02:55:46.652Z,12.90
2017-09-20T03:01:06.360Z,14.03
2017-09-20T03:06:26.071Z,12.03
2017-09-20T03:11:46.805Z,12.30
2017-09-20T03:17:06.300Z,11.70
2017-09-20T03:22:10.916Z,12.53
2017-09-20T03:27:13.612Z,12.53
2017-09-20T03:32:15.522Z,12.33
2017-09-20T03:37:18.392Z,11.50
2017-09-20T03:42:20.285Z,13.60
2017-09-20T03:47:22.144Z,13.47
2017-09-20T03:52:25.305Z,14.10
2017-09-20T03:57:27.156Z,14.77
2017-09-20T04:02:29.034Z,15.20
2017-09-20T04:07:32.624Z,15.20
2017-09-20T04:12:34.503Z,15.57
2017-09-20T04:17:36.379Z,14.03
2017-09-20T04:22:38.264Z,13.37
2017-09-20T04:27:40.791Z,13.47
2017-09-20T04:32:42.655Z,14.40
2017-09-20T04:37:44.531Z,14.77
2017-09-20T04:42:47.403Z,14.90
2017-09-20T04:47:49.888Z,15.57
2017-09-20T04:52:51.773Z,15.50
2017-09-20T04:57:53.682Z,17.40
2017-09-20T05:02:55.533Z,18.50
2017-09-20T05:07:57.367Z,16.10
2017-09-20T05:12:59.927Z,16.00
2017-09-20T05:18:01.752Z,16.60
2017-09-20T05:23:03.624Z,15.40
2017-09-20T05:28:05.492Z,16.37
2017-09-20T05:33:07.524Z,18.67
2017-09-20T05:38:09.348Z,17.57
2017-09-20T05:43:12.155Z,15.93
2017-09-20T05:48:14.091Z,16.43
2017-09-20T05:53:15.892Z,16.67
2017-09-20T05:58:17.846Z,15.80
2017-09-20T06:03:20.420Z,16.70
2017-09-20T06:08:23.416Z,17.27
2017-09-20T06:13:25.256Z,18.60
2017-09-20T06:18:28.222Z,16.63
2017-09-20T06:23:31.067Z,18.77
2017-09-20T06:28:33.082Z,17.37
2017-09-20T06:33:34.915Z,20.40
2017-09-20T06:38:36.831Z,19.17
2017-09-20T06:43:38.709Z,21.30
2017-09-20T06:48:40.562Z,20.27
2017-09-20T06:53:43.617Z,21.90
2017-09-20T06:58:45.544Z,20.57
2017-09-20T07:04:01.767Z,20.50
2017-09-20T07:09:03.893Z,19.20
2017-09-20T07:14:05.704Z,20.60
2017-09-20T07:19:07.647Z,19.70
2017-09-20T07:24:09.497Z,20.00
2017-09-20T07:29:11.336Z,20.60
2017-09-20T07:34:15.359Z,18.70
2017-09-20T07:39:18.172Z,18.40
2017-09-20T07:44:23.772Z,18.30
2017-09-20T07:49:27.174Z,18.53
2017-09-20T07:54:29.085Z,18.70
2017-09-20T07:59:33.833Z,18.30
2017-09-20T08:04:35.643Z,17.90
2017-09-20T08:09:37.583Z,17.80
2017-09-20T08:14:39.909Z,18.40
2017-09-20T08:19:41.749Z,17.70
2017-09-20T08:24:44.726Z,18.93
2017-09-20T08:29:46.628Z,18.97
2017-09-20T08:34:48.505Z,17.17
2017-09-20T08:39:51.278Z,19.30
2017-09-20T08:44:53.152Z,17.90
2017-09-20T08:49:55.001Z,17.53
2017-09-20T08:54:56.937Z,17.47
2017-09-20T08:59:59.840Z,19.93
2017-09-20T09:05:02.920Z,18.83
2017-09-20T09:10:05.027Z,20.17
2017-09-20T09:15:06.845Z,18.30
2017-09-20T09:20:09.194Z,17.83
2017-09-20T09:25:11.924Z,19.97
2017-09-20T09:30:13.866Z,19.90
2017-09-20T09:35:15.723Z,19.77
2017-09-20T09:40:17.599Z,19.70
2017-09-20T09:45:19.498Z,17.53
2017-09-20T09:50:21.348Z,17.90
2017-09-20T09:55:23.224Z,17.07
2017-09-20T10:00:25.131Z,17.60
2017-09-20T10:05:26.984Z,15.90
2017-09-20T10:10:28.819Z,17.40
2017-09-20T10:15:30.728Z,15.50
2017-09-20T10:20:32.611Z,16.77
2017-09-20T10:25:34.451Z,15.67
2017-09-20T10:30:36.340Z,15.87
2017-09-20T10:35:38.204Z,16.47
2017-09-20T10:40:40.084Z,14.93
2017-09-20T10:45:41.983Z,16.03
2017-09-20T10:50:43.848Z,16.20
2017-09-20T10:55:45.731Z,14.00
2017-09-20T11:00:47.627Z,15.40
2017-09-20T11:05:49.430Z,15.23
2017-09-20T11:10:51.365Z,15.30
2017-09-20T11:15:53.189Z,15.10
2017-09-20T11:20:55.127Z,13.73
2017-09-20T11:25:56.880Z,14.13
2017-09-20T11:30:58.653Z,13.33
2017-09-20T11:36:00.531Z,13.97
2017-09-20T11:41:02.420Z,13.20
2017-09-20T11:46:04.177Z,12.83
2017-09-20T11:51:06.691Z,13.67
2017-09-20T11:56:08.555Z,14.47
2017-09-20T12:01:10.472Z,14.10
2017-09-20T12:06:12.320Z,14.00
2017-09-20T12:11:14.183Z,13.57
2017-09-20T12:16:18.123Z,14.60
2017-09-20T12:21:19.983Z,15.27
2017-09-20T12:26:22.551Z,14.00
2017-09-20T12:31:24.352Z,16.57
2017-09-20T12:36:27.202Z,14.23
2017-09-20T12:41:29.112Z,12.20
2017-09-20T12:46:34.096Z,12.43
2017-09-20T12:51:35.947Z,11.60
2017-09-20T12:56:38.436Z,11.83
2017-09-20T13:01:42.720Z,12.17
2017-09-20T13:06:44.544Z,11.50
2017-09-20T13:11:46.454Z,14.20
2017-09-20T13:16:48.321Z,10.93
2017-09-20T13:21:50.201Z,8.80
2017-09-20T13:26:51.960Z,8.10
2017-09-20T13:31:54.650Z,9.27
2017-09-20T13:36:56.533Z,10.20
2017-09-20T13:41:58.411Z,9.83
2017-09-20T13:47:00.296Z,10.10
2017-09-20T13:52:02.168Z,10.27
2017-09-20T13:57:03.893Z,18.00
2017-09-20T14:02:05.748Z,11.60
2017-09-20T14:07:07.552Z,11.07
2017-09-20T14:12:10.303Z,12.00
2017-09-20T14:17:12.012Z,10.80
2017-09-20T14:22:14.682Z,10.40
2017-09-20T14:27:16.445Z,10.00
2017-09-20T14:32:18.312Z,10.97
2017-09-20T14:37:21.826Z,12.70
2017-09-20T14:42:24.320Z,10.80
2017-09-20T14:47:27.845Z,12.00
2017-09-20T14:52:30.407Z,11.37
2017-09-20T14:57:32.255Z,11.83
2017-09-20T15:02:34.165Z,10.83
2017-09-20T15:07:36.013Z,11.80
2017-09-20T15:12:38.412Z,12.37
2017-09-20T15:17:43.069Z,11.93
2017-09-20T15:22:44.946Z,13.67
2017-09-20T15:27:46.795Z,14.13
2017-09-20T15:32:48.535Z,15.07
2017-09-20T15:37:50.412Z,17.30
2017-09-20T15:42:52.286Z,16.60
2017-09-20T15:47:54.726Z,15.50
2017-09-20T15:52:56.628Z,15.53
2017-09-20T15:57:59.444Z,16.83
2017-09-20T16:03:01.400Z,15.60
2017-09-20T16:08:03.205Z,16.57
2017-09-20T16:13:06.359Z,14.13
2017-09-20T16:18:08.235Z,14.50
2017-09-20T16:23:10.343Z,12.83
2017-09-20T16:28:13.559Z,16.23
2017-09-20T16:33:16.147Z,11.83
2017-09-20T16:38:17.992Z,11.93
2017-09-20T16:43:19.799Z,11.30
2017-09-20T16:48:21.781Z,11.73
2017-09-20T16:53:23.654Z,11.37
2017-09-20T16:58:28.609Z,11.73
2017-09-20T17:03:30.672Z,12.40
2017-09-20T17:08:32.540Z,13.73
2017-09-20T17:13:35.281Z,12.03
2017-09-20T17:18:37.066Z,13.37
2017-09-20T17:23:38.995Z,13.83
2017-09-20T17:28:40.892Z,13.67
2017-09-20T17:33:42.849Z,12.30
2017-09-20T17:38:44.824Z,12.50
2017-09-20T17:43:46.721Z,13.27
2017-09-20T17:48:48.608Z,13.43
2017-09-20T17:53:53.986Z,13.33
2017-09-20T17:58:57.892Z,16.17
2017-09-20T18:03:59.769Z,24.20
2017-09-20T18:09:12.644Z,37.17
2017-09-20T18:14:21.830Z,20.13
2017-09-20T18:19:23.636Z,15.47
2017-09-20T18:24:25.507Z,14.17
2017-09-20T18:29:27.386Z,13.60
2017-09-20T18:34:29.467Z,13.40
2017-09-20T18:39:31.356Z,13.07
2017-09-20T18:44:33.204Z,13.80
2017-09-20T18:49:35.025Z,14.17
2017-09-20T18:54:38.604Z,14.50
2017-09-20T18:59:41.529Z,15.37
2017-09-20T19:04:47.108Z,13.83
2017-09-20T19:09:50.917Z,13.77
2017-09-20T19:14:52.895Z,13.87
2017-09-20T19:19:59.895Z,13.73
2017-09-20T19:25:02.164Z,15.67
2017-09-20T19:30:03.955Z,15.57
2017-09-20T19:35:05.807Z,15.67
2017-09-20T19:40:08.337Z,19.00
2017-09-20T19:45:10.205Z,16.40
2017-09-20T19:50:12.490Z,13.97
2017-09-20T19:55:14.309Z,12.60
2017-09-20T20:00:17.666Z,12.90
2017-09-20T20:05:19.657Z,13.20
2017-09-20T20:10:22.192Z,12.60
2017-09-20T20:15:25.166Z,12.57
2017-09-20T20:20:27.944Z,12.87
2017-09-20T20:25:31.272Z,12.87
2017-09-20T20:30:33.244Z,12.67
2017-09-20T20:35:35.121Z,13.20
2017-09-20T20:40:36.973Z,12.47
2017-09-20T20:45:38.954Z,11.90
2017-09-20T20:50:41.457Z,13.00
2017-09-20T20:55:43.323Z,12.97
2017-09-20T21:00:45.173Z,13.73
2017-09-20T21:05:47.939Z,12.23
2017-09-20T21:10:50.827Z,13.83
2017-09-20T21:15:53.441Z,12.23
2017-09-20T21:20:56.015Z,13.60
2017-09-20T21:25:57.891Z,13.57
2017-09-20T21:30:59.767Z,12.03
2017-09-20T21:36:01.645Z,12.47
2017-09-20T21:41:03.464Z,12.53
2017-09-20T21:46:05.400Z,12.03
2017-09-20T21:51:12.740Z,12.73
2017-09-20T21:56:15.262Z,12.50
2017-09-20T22:01:20.760Z,12.33
2017-09-20T22:06:22.844Z,12.60
2017-09-20T22:11:24.925Z,13.43
2017-09-20T22:16:39.705Z,12.73
2017-09-20T22:21:53.666Z,12.60
2017-09-20T22:26:56.362Z,12.37
2017-09-20T22:32:00.466Z,13.60
2017-09-20T22:37:02.316Z,13.23
2017-09-20T22:42:07.423Z,13.43
2017-09-20T22:47:09.231Z,12.77
2017-09-20T22:52:11.176Z,14.10
2017-09-20T22:57:13.056Z,13.07
2017-09-20T23:02:15.114Z,12.17
2017-09-20T23:07:17.628Z,12.03
2017-09-20T23:12:21.553Z,11.90
2017-09-20T23:17:23.431Z,11.50
2017-09-20T23:22:27.356Z,13.20
2017-09-20T23:27:32.509Z,13.10
2017-09-20T23:32:34.423Z,12.60
2017-09-20T23:37:36.982Z,13.23
2017-09-20T23:42:38.962Z,13.60
2017-09-20T23:47:40.839Z,13.60
2017-09-20T23:52:43.287Z,13.30
2017-09-20T23:57:45.208Z,12.13
